createdAt,value
2022-11-06T00:01:13.917Z,1.58
2022-11-06T00:04:15.617Z,1.65
2022-11-06T00:07:17.290Z,1.65
2022-11-06T00:10:19.200Z,1.63
2022-11-06T00:13:20.897Z,1.60
2022-11-06T00:16:22.603Z,1.67
2022-11-06T00:19:24.344Z,1.67
2022-11-06T00:22:26.081Z,1.65
2022-11-06T00:25:27.930Z,1.65
2022-11-06T00:28:29.625Z,1.58
2022-11-06T00:31:37.009Z,1.55
2022-11-06T00:34:38.727Z,1.80
2022-11-06T00:37:40.425Z,1.60
2022-11-06T00:40:42.133Z,1.50
2022-11-06T00:43:51.848Z,1.40
2022-11-06T00:46:53.570Z,1.60
2022-11-06T00:49:55.342Z,1.73
2022-11-06T00:52:57.096Z,1.35
2022-11-06T00:56:13.218Z,1.55
2022-11-06T00:59:15.014Z,1.48
2022-11-06T01:02:19.445Z,1.48
2022-11-06T01:05:21.312Z,1.75
2022-11-06T01:08:23.036Z,1.52
2022-11-06T01:11:59.358Z,1.45
2022-11-06T01:14:57.066Z,1.35
2022-11-06T01:17:58.770Z,1.20
2022-11-06T01:21:05.273Z,1.40
2022-11-06T01:24:25.715Z,1.38
2022-11-06T01:27:27.812Z,1.48
2022-11-06T01:30:29.669Z,1.40
2022-11-06T01:33:31.599Z,1.63
2022-11-06T01:36:33.839Z,1.40
2022-11-06T01:39:35.564Z,1.40
2022-11-06T01:42:37.291Z,1.65
2022-11-06T01:45:39.384Z,1.50
2022-11-06T01:48:44.373Z,1.42
2022-11-06T01:51:53.014Z,1.30
2022-11-06T01:54:59.800Z,1.30
2022-11-06T01:58:03.161Z,1.60
2022-11-06T02:01:07.001Z,1.23
2022-11-06T02:04:23.560Z,1.50
2022-11-06T02:07:26.157Z,1.60
2022-11-06T02:10:28.923Z,1.60
2022-11-06T02:13:56.181Z,1.50
2022-11-06T02:17:18.365Z,1.30
2022-11-06T02:20:32.554Z,1.50
2022-11-06T02:23:49.468Z,1.50
2022-11-06T02:26:59.470Z,1.40
2022-11-06T02:30:04.007Z,1.23
2022-11-06T02:33:11.870Z,1.30
2022-11-06T02:36:19.012Z,1.30
2022-11-06T02:39:24.312Z,1.25
2022-11-06T02:42:28.317Z,1.15
2022-11-06T02:45:32.792Z,1.55
2022-11-06T02:48:40.613Z,1.45
2022-11-06T02:51:48.426Z,1.38
2022-11-06T02:55:05.692Z,1.25
2022-11-06T02:58:17.042Z,1.10
2022-11-06T03:01:28.275Z,1.42
2022-11-06T03:04:29.996Z,1.25
2022-11-06T03:07:38.752Z,1.25
2022-11-06T03:11:13.762Z,1.30
2022-11-06T03:14:24.151Z,1.20
2022-11-06T03:17:47.677Z,1.13
2022-11-06T03:21:02.972Z,1.30
2022-11-06T03:24:15.187Z,1.20
2022-11-06T03:28:00.918Z,1.08
2022-11-06T03:31:07.985Z,1.23
2022-11-06T03:34:16.854Z,1.10
2022-11-06T03:37:32.861Z,1.52
2022-11-06T03:40:40.102Z,1.27
2022-11-06T03:43:44.668Z,1.30
2022-11-06T03:47:01.277Z,1.10
2022-11-06T03:50:27.774Z,1.13
2022-11-06T03:53:52.008Z,1.10
2022-11-06T03:56:59.483Z,1.27
2022-11-06T04:00:03.578Z,1.33
2022-11-06T04:03:41.661Z,1.10
2022-11-06T04:06:48.435Z,1.33
2022-11-06T04:10:13.613Z,1.40
2022-11-06T04:13:35.534Z,1.20
2022-11-06T04:16:43.656Z,1.20
2022-11-06T04:19:52.682Z,1.27
2022-11-06T04:23:12.247Z,1.20
2022-11-06T04:26:37.901Z,0.80
2022-11-06T04:30:05.035Z,1.27
2022-11-06T04:33:22.594Z,1.63
2022-11-06T04:37:02.764Z,1.30
2022-11-06T04:40:24.051Z,1.30
2022-11-06T04:43:30.239Z,1.15
2022-11-06T04:46:42.209Z,1.20
2022-11-06T04:49:45.338Z,1.20
2022-11-06T04:52:48.241Z,1.10
2022-11-06T04:56:01.701Z,1.00
2022-11-06T04:59:06.980Z,1.40
2022-11-06T05:02:08.858Z,1.25
2022-11-06T05:05:10.850Z,1.40
2022-11-06T05:08:18.616Z,1.30
2022-11-06T05:11:20.362Z,1.00
2022-11-06T05:14:22.149Z,1.20
2022-11-06T05:17:23.864Z,1.27
2022-11-06T05:20:26.035Z,1.17
2022-11-06T05:23:27.733Z,1.10
2022-11-06T05:26:29.434Z,0.93
2022-11-06T05:29:31.147Z,0.95
2022-11-06T05:32:32.833Z,1.13
2022-11-06T05:35:34.539Z,1.15
2022-11-06T05:38:36.302Z,1.20
2022-11-06T05:41:38.042Z,1.20
2022-11-06T05:44:39.801Z,1.00
2022-11-06T05:47:42.051Z,1.08
2022-11-06T05:50:43.750Z,1.30
2022-11-06T05:53:49.966Z,1.30
2022-11-06T05:56:51.733Z,1.08
2022-11-06T05:59:53.448Z,1.10
2022-11-06T06:02:55.271Z,0.95
2022-11-06T06:05:57.070Z,0.90
2022-11-06T06:08:58.797Z,1.10
2022-11-06T06:12:00.518Z,1.10
2022-11-06T06:15:02.302Z,1.02
2022-11-06T06:18:04.397Z,1.10
2022-11-06T06:21:06.169Z,1.10
2022-11-06T06:24:08.064Z,1.00
2022-11-06T06:27:10.159Z,1.10
2022-11-06T06:30:12.255Z,1.00
2022-11-06T06:33:14.034Z,1.30
2022-11-06T06:36:15.895Z,0.90
2022-11-06T06:39:19.412Z,1.00
2022-11-06T06:42:21.123Z,1.40
2022-11-06T06:45:23.542Z,1.13
2022-11-06T06:48:25.667Z,1.42
2022-11-06T06:51:27.366Z,1.05
2022-11-06T06:54:29.047Z,1.00
2022-11-06T06:57:30.845Z,1.17
2022-11-06T07:00:32.551Z,0.90
2022-11-06T07:03:34.272Z,1.17
2022-11-06T07:06:36.017Z,1.27
2022-11-06T07:09:37.812Z,0.90
2022-11-06T07:12:39.518Z,1.00
2022-11-06T07:15:41.313Z,1.20
2022-11-06T07:18:43.022Z,1.20
2022-11-06T07:21:44.713Z,1.10
2022-11-06T07:24:46.394Z,1.00
2022-11-06T07:27:48.114Z,1.13
2022-11-06T07:30:49.795Z,1.10
2022-11-06T07:33:51.764Z,1.00
2022-11-06T07:36:53.476Z,1.10
2022-11-06T07:39:55.232Z,1.10
2022-11-06T07:43:03.481Z,1.08
2022-11-06T07:46:07.004Z,1.02
2022-11-06T07:49:09.977Z,1.27
2022-11-06T07:52:11.709Z,1.00
2022-11-06T07:55:13.457Z,1.30
2022-11-06T07:58:15.651Z,1.20
2022-11-06T08:01:19.172Z,1.00
2022-11-06T08:04:21.119Z,1.10
2022-11-06T08:07:22.827Z,1.08
2022-11-06T08:10:24.563Z,1.30
2022-11-06T08:13:26.452Z,1.40
2022-11-06T08:16:28.404Z,1.02
2022-11-06T08:19:30.125Z,1.17
2022-11-06T08:22:31.843Z,1.20
2022-11-06T08:25:34.652Z,1.25
2022-11-06T08:28:36.455Z,0.93
2022-11-06T08:31:38.183Z,0.95
2022-11-06T08:34:39.930Z,1.10
2022-11-06T08:37:41.820Z,1.02
2022-11-06T08:40:43.577Z,1.05
2022-11-06T08:43:45.257Z,1.20
2022-11-06T08:46:52.150Z,0.90
2022-11-06T08:49:55.935Z,0.90
2022-11-06T08:52:58.774Z,1.20
2022-11-06T08:56:03.432Z,1.00
2022-11-06T08:59:05.205Z,1.48
2022-11-06T09:02:07.037Z,1.10
2022-11-06T09:05:09.106Z,1.00
2022-11-06T09:08:11.980Z,1.05
2022-11-06T09:11:13.708Z,1.02
2022-11-06T09:14:15.462Z,1.08
2022-11-06T09:17:19.789Z,1.00
2022-11-06T09:20:23.571Z,1.10
2022-11-06T09:23:25.810Z,0.98
2022-11-06T09:26:27.523Z,1.10
2022-11-06T09:29:29.247Z,1.05
2022-11-06T09:32:30.968Z,0.90
2022-11-06T09:35:34.566Z,1.00
2022-11-06T09:38:36.358Z,0.95
2022-11-06T09:42:00.960Z,1.00
2022-11-06T09:45:11.581Z,0.80
2022-11-06T09:48:27.025Z,1.02
2022-11-06T09:51:57.178Z,1.10
2022-11-06T09:55:18.987Z,1.55
2022-11-06T09:58:26.696Z,1.08
2022-11-06T10:01:42.789Z,0.80
2022-11-06T10:05:00.888Z,1.10
2022-11-06T10:11:15.119Z,1.08
2022-11-06T10:14:47.470Z,1.02
2022-11-06T10:18:19.085Z,1.10
2022-11-06T10:21:23.106Z,0.98
2022-11-06T10:24:33.429Z,1.83
2022-11-06T10:27:47.144Z,1.40
2022-11-06T10:31:03.351Z,1.30
2022-11-06T10:34:13.289Z,1.10
2022-11-06T10:37:29.918Z,1.13
2022-11-06T10:40:32.739Z,1.20
2022-11-06T10:43:57.384Z,0.90
2022-11-06T10:47:04.720Z,1.13
2022-11-06T10:50:15.144Z,1.10
2022-11-06T10:53:25.746Z,1.10
2022-11-06T10:56:54.035Z,0.90
2022-11-06T10:59:55.914Z,1.25
2022-11-06T11:03:01.273Z,0.80
2022-11-06T11:06:04.847Z,1.30
2022-11-06T11:09:32.896Z,1.10
2022-11-06T11:12:34.630Z,1.00
2022-11-06T11:15:46.970Z,1.10
2022-11-06T11:18:50.367Z,1.20
2022-11-06T11:21:53.253Z,0.95
2022-11-06T11:25:23.903Z,1.10
2022-11-06T11:28:32.753Z,1.08
2022-11-06T11:31:35.702Z,1.10
2022-11-06T11:34:56.666Z,0.98
2022-11-06T11:38:10.647Z,1.00
2022-11-06T11:41:24.431Z,0.98
2022-11-06T11:44:26.205Z,1.00
2022-11-06T11:47:27.893Z,0.95
2022-11-06T11:50:32.340Z,1.20
2022-11-06T11:53:34.119Z,1.10
2022-11-06T11:57:07.916Z,1.13
2022-11-06T12:00:21.109Z,0.90
2022-11-06T12:03:26.005Z,1.30
2022-11-06T12:06:27.824Z,0.98
2022-11-06T12:09:33.615Z,1.00
2022-11-06T12:12:36.766Z,1.05
2022-11-06T12:15:45.799Z,1.00
2022-11-06T12:18:55.964Z,1.20
2022-11-06T12:22:10.926Z,1.20
2022-11-06T12:25:20.392Z,0.88
2022-11-06T12:28:25.035Z,1.35
2022-11-06T12:31:48.189Z,1.08
2022-11-06T12:35:10.022Z,1.23
2022-11-06T12:38:48.281Z,1.08
2022-11-06T12:41:52.701Z,1.02
2022-11-06T12:44:54.393Z,0.70
2022-11-06T12:48:08.813Z,0.93
2022-11-06T12:51:29.676Z,0.90
2022-11-06T12:54:54.274Z,0.88
2022-11-06T12:58:15.071Z,0.98
2022-11-06T13:02:06.710Z,1.00
2022-11-06T13:05:21.032Z,0.93
2022-11-06T13:08:53.613Z,1.08
2022-11-06T13:12:13.861Z,1.10
2022-11-06T13:15:41.618Z,1.42
2022-11-06T13:18:54.145Z,1.50
2022-11-06T13:22:10.806Z,1.50
2022-11-06T13:25:24.590Z,1.90
2022-11-06T13:28:41.257Z,1.83
2022-11-06T13:31:44.997Z,1.83
2022-11-06T13:34:51.039Z,1.58
2022-11-06T13:37:55.718Z,2.10
2022-11-06T13:41:05.200Z,1.65
2022-11-06T13:44:16.490Z,1.67
2022-11-06T13:47:29.732Z,1.60
2022-11-06T13:50:42.162Z,2.05
2022-11-06T13:53:53.272Z,2.15
2022-11-06T13:57:19.351Z,1.70
2022-11-06T14:00:41.303Z,1.70
2022-11-06T14:03:55.020Z,2.05
2022-11-06T14:07:00.588Z,1.50
2022-11-06T14:10:02.853Z,2.05
2022-11-06T14:13:06.549Z,2.00
2022-11-06T14:16:26.127Z,1.80
2022-11-06T14:19:29.765Z,1.70
2022-11-06T14:22:32.857Z,1.75
2022-11-06T14:25:40.349Z,1.60
2022-11-06T14:32:11.332Z,1.55
2022-11-06T14:35:28.346Z,1.50
2022-11-06T14:38:32.106Z,1.80
2022-11-06T14:41:38.323Z,1.33
2022-11-06T14:44:43.886Z,1.80
2022-11-06T14:47:56.347Z,1.50
2022-11-06T14:51:00.831Z,1.33
2022-11-06T14:54:20.182Z,1.20
2022-11-06T14:57:44.840Z,1.60
2022-11-06T15:01:09.526Z,1.58
2022-11-06T15:04:20.438Z,1.83
2022-11-06T15:08:04.533Z,1.75
2022-11-06T15:11:00.710Z,1.45
2022-11-06T15:14:09.057Z,1.60
2022-11-06T15:17:13.965Z,1.50
2022-11-06T15:20:22.935Z,1.73
2022-11-06T15:23:46.493Z,1.23
2022-11-06T15:27:03.801Z,1.58
2022-11-06T15:30:06.911Z,1.50
2022-11-06T15:33:14.529Z,1.60
2022-11-06T15:36:18.537Z,1.20
2022-11-06T15:39:29.246Z,1.30
2022-11-06T15:42:37.290Z,1.65
2022-11-06T15:45:39.003Z,1.55
2022-11-06T15:48:40.836Z,1.75
2022-11-06T15:51:51.156Z,1.27
2022-11-06T15:54:56.897Z,1.50
2022-11-06T15:58:09.333Z,1.80
2022-11-06T16:01:11.929Z,1.20
2022-11-06T16:04:18.959Z,1.67
2022-11-06T16:07:20.838Z,1.60
2022-11-06T16:10:24.013Z,1.50
2022-11-06T16:13:26.592Z,1.90
2022-11-06T16:16:35.985Z,1.70
2022-11-06T16:19:39.838Z,1.90
2022-11-06T16:22:41.810Z,1.52
2022-11-06T16:25:43.919Z,1.75
2022-11-06T16:28:49.010Z,1.58
2022-11-06T16:32:06.562Z,1.67
2022-11-06T16:35:35.306Z,1.55
2022-11-06T16:38:43.622Z,1.40
2022-11-06T16:41:57.617Z,1.38
2022-11-06T16:45:08.373Z,1.30
2022-11-06T16:48:10.038Z,1.33
2022-11-06T16:51:29.923Z,1.80
2022-11-06T16:54:32.403Z,1.77
2022-11-06T16:57:41.657Z,1.65
2022-11-06T17:00:43.623Z,1.67
2022-11-06T17:04:01.248Z,1.70
2022-11-06T17:07:02.990Z,1.67
2022-11-06T17:10:26.327Z,1.38
2022-11-06T17:13:34.108Z,1.83
2022-11-06T17:16:45.889Z,1.67
2022-11-06T17:19:47.579Z,1.90
2022-11-06T17:22:50.763Z,1.48
2022-11-06T17:26:27.740Z,1.40
2022-11-06T17:29:29.452Z,1.50
2022-11-06T17:32:31.181Z,1.83
2022-11-06T17:35:33.072Z,1.80
2022-11-06T17:38:34.792Z,1.58
2022-11-06T17:41:36.495Z,1.23
2022-11-06T17:44:38.209Z,1.83
2022-11-06T17:47:39.911Z,1.42
2022-11-06T17:51:00.253Z,1.60
2022-11-06T17:54:01.948Z,1.50
2022-11-06T17:57:05.895Z,1.33
2022-11-06T18:00:09.958Z,1.35
2022-11-06T18:03:19.438Z,1.20
2022-11-06T18:06:21.367Z,1.45
2022-11-06T18:09:24.757Z,1.27
2022-11-06T18:12:27.554Z,1.15
2022-11-06T18:15:29.285Z,1.20
2022-11-06T18:18:31.073Z,1.58
2022-11-06T18:21:33.258Z,1.33
2022-11-06T18:24:37.357Z,1.10
2022-11-06T18:27:39.077Z,1.38
2022-11-06T18:30:41.031Z,1.10
2022-11-06T18:33:42.875Z,1.30
2022-11-06T18:36:44.601Z,1.48
2022-11-06T18:39:46.313Z,1.55
2022-11-06T18:42:48.023Z,1.95
2022-11-06T18:45:50.097Z,2.20
2022-11-06T18:48:51.817Z,2.90
2022-11-06T18:51:53.560Z,1.77
2022-11-06T18:54:59.704Z,3.13
2022-11-06T18:58:02.621Z,2.45
2022-11-06T19:01:09.884Z,3.55
2022-11-06T19:04:11.881Z,2.78
2022-11-06T19:07:13.610Z,2.92
2022-11-06T19:10:15.479Z,3.03
2022-11-06T19:13:17.417Z,3.13
2022-11-06T19:16:19.592Z,2.90
2022-11-06T19:19:25.424Z,2.95
2022-11-06T19:22:29.354Z,3.10
2022-11-06T19:25:31.056Z,2.50
2022-11-06T19:28:35.882Z,3.30
2022-11-06T19:31:38.141Z,2.50
2022-11-06T19:34:39.892Z,2.78
2022-11-06T19:37:41.897Z,2.30
2022-11-06T19:40:51.827Z,2.97
2022-11-06T19:43:53.864Z,2.80
2022-11-06T19:46:55.834Z,2.90
2022-11-06T19:49:58.029Z,2.60
2022-11-06T19:52:59.736Z,2.53
2022-11-06T19:56:04.945Z,2.17
2022-11-06T19:59:06.656Z,2.90
2022-11-06T20:02:09.782Z,2.20
2022-11-06T20:05:11.568Z,2.35
2022-11-06T20:08:13.582Z,2.30
2022-11-06T20:11:15.365Z,2.67
2022-11-06T20:14:21.531Z,2.80
2022-11-06T20:17:23.256Z,2.53
2022-11-06T20:20:25.848Z,2.38
2022-11-06T20:23:29.053Z,2.67
2022-11-06T20:26:31.041Z,2.70
2022-11-06T20:29:32.889Z,2.28
2022-11-06T20:32:34.844Z,2.50
2022-11-06T20:35:39.892Z,2.30
2022-11-06T20:38:42.464Z,2.45
2022-11-06T20:41:44.191Z,2.00
2022-11-06T20:44:46.089Z,1.92
2022-11-06T20:47:47.836Z,2.45
2022-11-06T20:51:04.412Z,1.98
2022-11-06T20:54:06.412Z,2.03
2022-11-06T20:57:08.116Z,2.13
2022-11-06T21:00:10.646Z,2.03
2022-11-06T21:03:12.660Z,1.92
2022-11-06T21:06:14.919Z,2.40
2022-11-06T21:09:16.685Z,2.35
2022-11-06T21:12:18.402Z,2.17
2022-11-06T21:15:20.553Z,2.38
2022-11-06T21:18:22.268Z,2.15
2022-11-06T21:21:26.684Z,2.08
2022-11-06T21:24:28.398Z,1.90
2022-11-06T21:27:30.661Z,1.92
2022-11-06T21:30:32.443Z,1.77
2022-11-06T21:33:34.172Z,2.38
2022-11-06T21:36:37.392Z,2.65
2022-11-06T21:39:39.225Z,2.28
2022-11-06T21:42:40.971Z,2.33
2022-11-06T21:45:42.679Z,1.85
2022-11-06T21:48:47.217Z,2.30
2022-11-06T21:51:49.743Z,2.00
2022-11-06T21:55:10.107Z,2.00
2022-11-06T21:58:12.187Z,2.75
2022-11-06T22:01:14.207Z,1.70
2022-11-06T22:04:16.042Z,1.70
2022-11-06T22:07:17.829Z,1.90
2022-11-06T22:10:19.523Z,1.85
2022-11-06T22:13:21.234Z,2.00
2022-11-06T22:16:28.492Z,1.98
2022-11-06T22:19:30.210Z,1.73
2022-11-06T22:22:33.556Z,1.80
2022-11-06T22:25:38.330Z,2.47
2022-11-06T22:28:40.372Z,1.83
2022-11-06T22:31:42.209Z,1.95
2022-11-06T22:34:43.909Z,1.95
2022-11-06T22:37:45.604Z,2.00
2022-11-06T22:40:55.216Z,1.70
2022-11-06T22:44:00.468Z,2.13
2022-11-06T22:47:02.453Z,1.85
2022-11-06T22:50:04.312Z,2.20
2022-11-06T22:53:09.443Z,1.85
2022-11-06T22:56:14.195Z,1.75
2022-11-06T22:59:15.888Z,1.92
2022-11-06T23:02:17.657Z,1.85
2022-11-06T23:05:19.409Z,1.98
2022-11-06T23:08:21.148Z,1.73
2022-11-06T23:11:24.531Z,1.90
2022-11-06T23:14:26.223Z,1.92
2022-11-06T23:17:28.401Z,1.73
2022-11-06T23:20:34.574Z,1.88
2022-11-06T23:23:36.269Z,1.42
2022-11-06T23:26:38.501Z,1.92
2022-11-06T23:29:40.316Z,1.60
2022-11-06T23:32:42.513Z,1.48
2022-11-06T23:35:44.237Z,1.48
2022-11-06T23:38:46.281Z,1.60
2022-11-06T23:41:47.988Z,1.60
2022-11-06T23:45:08.735Z,1.50
2022-11-06T23:48:14.272Z,1.50
2022-11-06T23:51:16.062Z,1.77
2022-11-06T23:54:17.863Z,1.67
2022-11-06T23:57:20.101Z,1.67
